createdAt,value
2022-10-04T00:01:56.073Z,20.80
2022-10-04T00:04:28.377Z,20.80
2022-10-04T00:07:29.764Z,20.80
2022-10-04T00:10:18.744Z,20.80
2022-10-04T00:13:07.560Z,20.80
2022-10-04T00:15:38.830Z,20.80
2022-10-04T00:18:08.342Z,20.80
2022-10-04T00:20:56.168Z,20.80
2022-10-04T00:23:26.626Z,20.80
2022-10-04T00:26:25.711Z,20.80
2022-10-04T00:28:55.551Z,20.80
2022-10-04T00:31:22.511Z,20.80
2022-10-04T00:34:07.483Z,20.80
2022-10-04T00:36:45.996Z,20.80
2022-10-04T00:39:27.764Z,20.80
2022-10-04T00:42:03.349Z,20.90
2022-10-04T00:44:44.735Z,20.90
2022-10-04T00:47:21.244Z,20.90
2022-10-04T00:49:56.055Z,20.90
2022-10-04T00:52:29.228Z,20.90
2022-10-04T00:55:05.130Z,20.80
2022-10-04T00:57:44.871Z,20.90
2022-10-04T01:00:17.116Z,20.80
2022-10-04T01:02:44.405Z,20.90
2022-10-04T01:05:34.840Z,20.90
2022-10-04T01:08:14.693Z,20.90
2022-10-04T01:10:47.249Z,20.90
2022-10-04T01:13:21.152Z,20.90
2022-10-04T01:16:02.647Z,20.80
2022-10-04T01:18:35.268Z,20.90
2022-10-04T01:21:20.430Z,20.90
2022-10-04T01:23:48.336Z,20.80
2022-10-04T01:26:30.161Z,20.90
2022-10-04T01:29:07.375Z,20.90
2022-10-04T01:31:37.589Z,20.90
2022-10-04T01:34:05.697Z,20.90
2022-10-04T01:36:36.187Z,20.90
2022-10-04T01:39:04.443Z,20.90
2022-10-04T01:41:46.444Z,20.90
2022-10-04T01:44:48.157Z,20.80
2022-10-04T01:47:23.676Z,20.90
2022-10-04T01:49:53.160Z,20.90
2022-10-04T01:52:27.437Z,20.90
2022-10-04T01:55:03.593Z,20.90
2022-10-04T01:57:42.039Z,20.90
2022-10-04T02:00:12.543Z,20.90
2022-10-04T02:02:56.905Z,20.90
2022-10-04T02:05:40.199Z,20.90
2022-10-04T02:08:12.748Z,20.90
2022-10-04T02:10:43.901Z,20.90
2022-10-04T02:13:21.671Z,20.90
2022-10-04T02:15:49.876Z,20.90
2022-10-04T02:18:22.315Z,20.90
2022-10-04T02:20:50.882Z,20.90
2022-10-04T02:23:20.295Z,20.90
2022-10-04T02:25:49.490Z,20.90
2022-10-04T02:28:18.289Z,20.90
2022-10-04T02:31:09.954Z,20.90
2022-10-04T02:33:43.087Z,20.90
2022-10-04T02:36:11.188Z,20.90
2022-10-04T02:38:41.921Z,20.90
2022-10-04T02:41:33.131Z,20.90
2022-10-04T02:44:04.038Z,20.90
2022-10-04T02:46:51.388Z,20.90
2022-10-04T02:49:21.194Z,20.90
2022-10-04T02:51:58.160Z,20.80
2022-10-04T02:54:35.535Z,20.90
2022-10-04T02:57:02.601Z,20.80
2022-10-04T02:59:34.731Z,20.90
2022-10-04T03:02:03.257Z,20.90
2022-10-04T03:04:38.198Z,20.90
2022-10-04T03:07:08.222Z,20.90
2022-10-04T03:09:38.032Z,20.90
2022-10-04T03:12:06.108Z,20.90
2022-10-04T03:14:33.939Z,20.90
2022-10-04T03:17:04.212Z,20.90
2022-10-04T03:19:33.412Z,20.90
2022-10-04T03:22:06.399Z,20.90
2022-10-04T03:24:47.069Z,20.90
2022-10-04T03:27:26.311Z,20.90
2022-10-04T03:29:58.894Z,20.90
2022-10-04T03:32:30.656Z,20.80
2022-10-04T03:35:03.220Z,20.80
2022-10-04T03:37:35.077Z,20.90
2022-10-04T03:40:03.076Z,20.80
2022-10-04T03:42:34.269Z,20.90
2022-10-04T03:45:05.294Z,20.80
2022-10-04T03:47:45.765Z,20.80
2022-10-04T03:50:41.149Z,20.80
2022-10-04T03:53:13.936Z,20.90
2022-10-04T03:55:44.180Z,20.90
2022-10-04T03:58:18.410Z,20.80
2022-10-04T04:01:05.957Z,20.80
2022-10-04T04:03:46.263Z,20.80
2022-10-04T04:06:17.493Z,20.80
2022-10-04T04:08:47.003Z,20.80
2022-10-04T04:11:32.951Z,20.80
2022-10-04T04:14:14.624Z,20.80
2022-10-04T04:16:41.517Z,20.80
2022-10-04T04:19:16.603Z,20.80
2022-10-04T04:21:46.681Z,20.80
2022-10-04T04:24:32.098Z,20.80
2022-10-04T04:27:03.233Z,20.70
2022-10-04T04:29:44.283Z,20.80
2022-10-04T04:32:40.186Z,20.80
2022-10-04T04:35:21.252Z,20.80
2022-10-04T04:38:06.361Z,20.70
2022-10-04T04:40:34.122Z,20.70
2022-10-04T04:43:02.717Z,20.70
2022-10-04T04:45:32.207Z,20.70
2022-10-04T04:48:01.212Z,20.70
2022-10-04T04:50:37.587Z,20.70
2022-10-04T04:53:18.946Z,20.70
2022-10-04T04:56:04.801Z,20.70
2022-10-04T04:58:41.491Z,20.70
2022-10-04T05:01:36.265Z,20.70
2022-10-04T05:04:06.491Z,20.70
2022-10-04T05:06:36.032Z,20.70
2022-10-04T05:09:04.684Z,20.60
2022-10-04T05:11:41.491Z,20.70
2022-10-04T05:14:11.321Z,20.60
2022-10-04T05:16:58.116Z,20.60
2022-10-04T05:19:30.478Z,20.60
2022-10-04T05:22:00.421Z,20.60
2022-10-04T05:24:48.207Z,20.40
2022-10-04T05:27:41.062Z,19.90
2022-10-04T05:30:18.795Z,19.60
2022-10-04T05:33:00.128Z,19.20
2022-10-04T05:35:28.258Z,18.70
2022-10-04T05:38:18.660Z,18.10
2022-10-04T05:41:03.374Z,17.40
2022-10-04T05:43:39.182Z,16.80
2022-10-04T05:46:26.220Z,16.40
2022-10-04T05:49:18.886Z,16.30
2022-10-04T05:52:01.563Z,16.00
2022-10-04T05:54:32.829Z,15.80
2022-10-04T05:57:12.898Z,15.60
2022-10-04T05:59:55.356Z,15.40
2022-10-04T06:02:46.026Z,15.40
2022-10-04T06:05:18.848Z,15.40
2022-10-04T06:08:03.278Z,15.60
2022-10-04T06:10:45.738Z,15.50
2022-10-04T06:13:21.787Z,15.30
2022-10-04T06:15:58.048Z,15.20
2022-10-04T06:18:54.279Z,15.10
2022-10-04T06:21:48.157Z,15.10
2022-10-04T06:24:27.120Z,14.90
2022-10-04T06:27:07.868Z,14.80
2022-10-04T06:29:40.830Z,14.70
2022-10-04T06:32:37.466Z,14.50
2022-10-04T06:35:27.692Z,14.40
2022-10-04T06:38:16.852Z,14.20
2022-10-04T06:40:56.252Z,14.20
2022-10-04T06:43:29.970Z,14.20
2022-10-04T06:46:09.036Z,14.20
2022-10-04T06:48:56.520Z,14.10
2022-10-04T06:52:01.911Z,14.20
2022-10-04T06:55:11.701Z,14.30
2022-10-04T06:57:50.779Z,14.30
2022-10-04T07:00:29.595Z,14.30
2022-10-04T07:03:05.893Z,14.40
2022-10-04T07:05:40.812Z,14.50
2022-10-04T07:08:31.601Z,14.60
2022-10-04T07:11:12.147Z,14.60
2022-10-04T07:14:05.644Z,14.60
2022-10-04T07:16:56.481Z,14.60
2022-10-04T07:19:32.291Z,14.60
2022-10-04T07:22:24.997Z,14.60
2022-10-04T07:25:03.914Z,14.70
2022-10-04T07:27:30.770Z,14.80
2022-10-04T07:30:02.495Z,14.80
2022-10-04T07:32:38.689Z,14.90
2022-10-04T07:35:14.096Z,15.00
2022-10-04T07:38:05.868Z,15.10
2022-10-04T07:40:50.392Z,15.10
2022-10-04T07:43:27.405Z,15.20
2022-10-04T07:46:06.158Z,15.30
2022-10-04T07:48:32.988Z,15.50
2022-10-04T07:51:18.477Z,15.50
2022-10-04T07:53:52.130Z,15.60
2022-10-04T07:56:31.985Z,15.70
2022-10-04T07:59:29.709Z,15.80
2022-10-04T08:02:16.146Z,16.00
2022-10-04T08:05:07.515Z,16.10
2022-10-04T08:08:02.165Z,16.30
2022-10-04T08:10:57.039Z,16.40
2022-10-04T08:13:45.379Z,16.50
2022-10-04T08:16:28.570Z,16.50
2022-10-04T08:19:24.155Z,16.60
2022-10-04T08:22:05.937Z,16.70
2022-10-04T08:25:16.311Z,16.70
2022-10-04T08:28:08.682Z,16.80
2022-10-04T08:31:17.405Z,17.00
2022-10-04T08:34:02.752Z,17.20
2022-10-04T08:36:57.167Z,17.30
2022-10-04T08:39:43.208Z,17.40
2022-10-04T08:42:28.664Z,17.50
2022-10-04T08:45:38.280Z,17.50
2022-10-04T08:48:30.341Z,17.60
2022-10-04T08:51:27.657Z,17.70
2022-10-04T08:54:23.855Z,17.70
2022-10-04T08:57:16.456Z,17.70
2022-10-04T09:00:10.649Z,17.90
2022-10-04T09:02:46.765Z,18.10
2022-10-04T09:05:22.327Z,18.30
2022-10-04T09:08:07.335Z,18.40
2022-10-04T09:10:42.349Z,18.50
2022-10-04T09:13:19.121Z,18.60
2022-10-04T09:15:58.993Z,18.60
2022-10-04T09:18:38.062Z,18.60
2022-10-04T09:21:11.122Z,18.60
2022-10-04T09:23:46.783Z,18.60
2022-10-04T09:26:32.369Z,18.70
2022-10-04T09:29:10.759Z,18.70
2022-10-04T09:31:52.009Z,18.70
2022-10-04T09:34:43.278Z,18.80
2022-10-04T09:37:35.496Z,18.80
2022-10-04T09:40:28.688Z,18.90
2022-10-04T09:43:33.698Z,19.00
2022-10-04T09:46:05.455Z,19.10
2022-10-04T09:49:09.772Z,19.20
2022-10-04T09:51:36.449Z,19.30
2022-10-04T09:54:30.133Z,19.30
2022-10-04T09:57:29.008Z,19.40
2022-10-04T10:00:24.880Z,19.60
2022-10-04T10:03:03.982Z,19.70
2022-10-04T10:05:55.666Z,19.80
2022-10-04T10:08:47.212Z,19.90
2022-10-04T10:12:11.263Z,19.90
2022-10-04T10:14:56.360Z,19.90
2022-10-04T10:17:41.307Z,19.90
2022-10-04T10:20:34.156Z,19.90
2022-10-04T10:23:37.863Z,20.00
2022-10-04T10:26:38.647Z,20.00
2022-10-04T10:29:25.615Z,20.10
2022-10-04T10:32:33.457Z,20.10
2022-10-04T10:35:13.365Z,20.20
2022-10-04T10:38:04.650Z,20.30
2022-10-04T10:40:45.386Z,20.40
2022-10-04T10:43:23.887Z,20.50
2022-10-04T10:46:05.557Z,20.50
2022-10-04T10:48:44.565Z,20.40
2022-10-04T10:51:25.611Z,20.60
2022-10-04T10:54:36.924Z,20.60
2022-10-04T10:57:22.276Z,20.70
2022-10-04T11:00:20.628Z,20.60
2022-10-04T11:03:23.227Z,20.50
2022-10-04T11:06:15.620Z,20.60
2022-10-04T11:09:06.663Z,20.70
2022-10-04T11:12:10.704Z,20.70
2022-10-04T11:14:55.693Z,20.80
2022-10-04T11:17:34.197Z,20.70
2022-10-04T11:20:26.800Z,20.70
2022-10-04T11:23:18.372Z,20.70
2022-10-04T11:26:17.341Z,20.60
2022-10-04T11:28:52.282Z,20.50
2022-10-04T11:31:41.201Z,20.50
2022-10-04T11:34:45.415Z,20.50
2022-10-04T11:37:43.556Z,20.50
2022-10-04T11:40:22.191Z,20.60
2022-10-04T11:43:01.816Z,20.60
2022-10-04T11:45:36.350Z,20.60
2022-10-04T11:48:32.869Z,20.50
2022-10-04T11:51:24.662Z,20.60
2022-10-04T11:54:07.521Z,20.60
2022-10-04T11:57:07.572Z,20.60
2022-10-04T11:59:39.301Z,20.60
2022-10-04T12:02:17.604Z,20.50
2022-10-04T12:05:38.978Z,20.60
2022-10-04T12:08:40.605Z,20.60
2022-10-04T12:11:27.030Z,20.60
2022-10-04T12:14:08.901Z,20.60
2022-10-04T12:16:50.633Z,20.60
2022-10-04T12:19:39.622Z,20.70
2022-10-04T12:22:06.386Z,20.60
2022-10-04T12:25:01.575Z,20.60
2022-10-04T12:27:55.339Z,20.60
2022-10-04T12:30:33.014Z,20.60
2022-10-04T12:33:23.658Z,20.60
2022-10-04T12:36:24.557Z,20.60
2022-10-04T12:39:21.299Z,20.60
2022-10-04T12:42:24.400Z,20.60
2022-10-04T12:45:36.562Z,20.60
2022-10-04T12:48:06.274Z,20.60
2022-10-04T12:50:36.055Z,20.60
2022-10-04T12:53:41.090Z,20.60
2022-10-04T12:56:13.251Z,20.60
2022-10-04T12:58:56.004Z,20.70
2022-10-04T13:01:35.352Z,20.70
2022-10-04T13:04:04.898Z,20.60
2022-10-04T13:06:43.568Z,20.60
2022-10-04T13:09:37.157Z,20.50
2022-10-04T13:12:35.061Z,20.50
2022-10-04T13:15:09.901Z,20.50
2022-10-04T13:17:39.514Z,20.50
2022-10-04T13:20:17.717Z,20.50
2022-10-04T13:22:57.875Z,20.50
2022-10-04T13:26:09.616Z,20.40
2022-10-04T13:29:10.509Z,20.40
2022-10-04T13:31:57.561Z,20.40
2022-10-04T13:34:56.913Z,20.40
2022-10-04T13:37:58.955Z,20.40
2022-10-04T13:40:39.247Z,20.40
2022-10-04T13:43:23.168Z,20.40
2022-10-04T13:46:37.532Z,20.40
2022-10-04T13:49:27.718Z,20.40
2022-10-04T13:52:27.923Z,20.30
2022-10-04T13:55:50.077Z,20.30
2022-10-04T13:58:31.834Z,20.30
2022-10-04T14:01:15.333Z,20.30
2022-10-04T14:04:00.717Z,20.30
2022-10-04T14:06:49.178Z,20.20
2022-10-04T14:09:53.133Z,20.20
2022-10-04T14:12:50.112Z,20.20
2022-10-04T14:15:35.235Z,20.20
2022-10-04T14:18:27.541Z,20.30
2022-10-04T14:21:25.492Z,20.40
2022-10-04T14:24:16.502Z,20.60
2022-10-04T14:27:02.037Z,20.70
2022-10-04T14:29:40.737Z,20.60
2022-10-04T14:32:31.382Z,20.70
2022-10-04T14:35:23.476Z,20.80
2022-10-04T14:38:17.337Z,20.90
2022-10-04T14:40:49.977Z,21.00
2022-10-04T14:43:47.522Z,21.10
2022-10-04T14:46:39.960Z,21.20
2022-10-04T14:49:31.104Z,21.20
2022-10-04T14:52:06.542Z,21.20
2022-10-04T14:54:54.042Z,21.30
2022-10-04T14:57:39.377Z,21.40
2022-10-04T15:00:19.647Z,21.40
2022-10-04T15:03:13.323Z,21.40
2022-10-04T15:05:59.944Z,21.40
2022-10-04T15:08:58.021Z,21.40
2022-10-04T15:12:25.343Z,21.50
2022-10-04T15:15:12.015Z,21.50
2022-10-04T15:17:55.661Z,21.50
2022-10-04T15:20:57.399Z,21.50
2022-10-04T15:23:34.837Z,21.50
2022-10-04T15:26:04.628Z,21.50
2022-10-04T15:28:54.741Z,21.50
2022-10-04T15:32:20.515Z,21.50
2022-10-04T15:35:10.307Z,21.50
2022-10-04T15:38:02.426Z,21.50
2022-10-04T15:41:21.719Z,21.50
2022-10-04T15:44:14.604Z,21.50
2022-10-04T15:46:50.838Z,21.40
2022-10-04T15:49:30.592Z,21.40
2022-10-04T15:52:12.528Z,21.50
2022-10-04T15:55:07.901Z,21.50
2022-10-04T15:58:02.825Z,21.40
2022-10-04T16:00:41.144Z,21.40
2022-10-04T16:03:17.770Z,21.40
2022-10-04T16:05:47.150Z,21.40
2022-10-04T16:08:35.649Z,21.40
2022-10-04T16:11:24.205Z,21.40
2022-10-04T16:14:32.948Z,21.40
2022-10-04T16:17:18.261Z,21.40
2022-10-04T16:20:09.657Z,21.40
2022-10-04T16:22:38.279Z,21.40
2022-10-04T16:25:23.700Z,21.40
2022-10-04T16:27:56.597Z,21.30
2022-10-04T16:30:28.219Z,21.40
2022-10-04T16:33:12.135Z,21.30
2022-10-04T16:35:46.223Z,21.40
2022-10-04T16:38:12.939Z,21.30
2022-10-04T16:40:51.633Z,21.30
2022-10-04T16:43:18.413Z,21.30
2022-10-04T16:45:45.118Z,21.30
2022-10-04T16:48:51.300Z,21.30
2022-10-04T16:51:17.947Z,21.30
2022-10-04T16:54:12.207Z,21.30
2022-10-04T16:56:56.282Z,21.30
2022-10-04T16:59:51.412Z,21.30
2022-10-04T17:02:25.056Z,21.30
2022-10-04T17:05:29.575Z,21.30
2022-10-04T17:08:17.285Z,21.30
2022-10-04T17:10:50.043Z,21.30
2022-10-04T17:13:16.691Z,21.30
2022-10-04T17:16:01.357Z,21.30
2022-10-04T17:19:09.652Z,21.30
2022-10-04T17:21:58.717Z,21.30
2022-10-04T17:24:56.764Z,21.30
2022-10-04T17:27:35.122Z,21.30
2022-10-04T17:30:17.001Z,21.30
2022-10-04T17:32:46.836Z,21.30
2022-10-04T17:35:36.842Z,21.20
2022-10-04T17:38:29.065Z,21.20
2022-10-04T17:41:32.751Z,21.20
2022-10-04T17:44:22.024Z,21.20
2022-10-04T17:47:03.501Z,21.20
2022-10-04T17:50:13.687Z,21.20
2022-10-04T17:53:14.548Z,21.20
2022-10-04T17:55:44.106Z,21.20
2022-10-04T17:58:19.498Z,21.20
2022-10-04T18:00:59.474Z,21.10
2022-10-04T18:03:52.279Z,21.10
2022-10-04T18:06:37.803Z,21.10
2022-10-04T18:09:24.877Z,21.10
2022-10-04T18:11:58.961Z,21.10
2022-10-04T18:14:45.997Z,21.10
2022-10-04T18:17:45.102Z,21.10
2022-10-04T18:20:35.491Z,21.10
2022-10-04T18:23:18.959Z,21.10
2022-10-04T18:25:46.100Z,21.00
2022-10-04T18:28:21.690Z,21.00
2022-10-04T18:31:00.109Z,21.00
2022-10-04T18:33:37.744Z,21.00
2022-10-04T18:36:18.125Z,21.00
2022-10-04T18:38:58.055Z,21.00
2022-10-04T18:41:45.204Z,20.90
2022-10-04T18:44:15.912Z,20.90
2022-10-04T18:46:47.987Z,20.90
2022-10-04T18:49:27.076Z,20.90
2022-10-04T18:52:03.297Z,20.90
2022-10-04T18:54:53.855Z,20.90
2022-10-04T18:57:58.594Z,20.90
2022-10-04T19:01:01.779Z,20.90
2022-10-04T19:03:50.931Z,20.90
2022-10-04T19:06:34.153Z,20.90
2022-10-04T19:09:13.358Z,20.80
2022-10-04T19:11:57.291Z,20.80
2022-10-04T19:14:23.975Z,20.80
2022-10-04T19:17:06.052Z,20.80
2022-10-04T19:19:48.801Z,20.80
2022-10-04T19:22:37.734Z,20.80
2022-10-04T19:25:31.979Z,20.80
2022-10-04T19:28:07.669Z,20.80
2022-10-04T19:30:51.756Z,20.80
2022-10-04T19:33:22.752Z,20.80
2022-10-04T19:36:14.036Z,20.80
2022-10-04T19:38:55.549Z,20.80
2022-10-04T19:41:30.953Z,20.80
2022-10-04T19:44:20.269Z,20.70
2022-10-04T19:47:00.688Z,20.80
2022-10-04T19:49:45.225Z,20.80
2022-10-04T19:52:23.815Z,20.80
2022-10-04T19:55:00.333Z,20.80
2022-10-04T19:57:37.030Z,20.80
2022-10-04T20:00:14.972Z,20.80
2022-10-04T20:02:48.535Z,20.80
2022-10-04T20:05:25.003Z,20.80
2022-10-04T20:07:57.747Z,20.80
2022-10-04T20:10:36.129Z,20.80
2022-10-04T20:13:06.421Z,20.90
2022-10-04T20:15:34.740Z,20.90
2022-10-04T20:18:03.053Z,20.80
2022-10-04T20:20:56.939Z,20.80
2022-10-04T20:23:58.837Z,20.90
2022-10-04T20:27:01.547Z,20.90
2022-10-04T20:30:13.377Z,20.90
2022-10-04T20:32:40.499Z,20.90
2022-10-04T20:35:14.867Z,20.90
2022-10-04T20:37:44.684Z,20.90
2022-10-04T20:40:33.878Z,20.90
2022-10-04T20:43:26.504Z,20.90
2022-10-04T20:45:55.123Z,21.00
2022-10-04T20:48:24.232Z,21.00
2022-10-04T20:50:52.202Z,21.00
2022-10-04T20:53:30.545Z,21.00
2022-10-04T20:56:30.849Z,21.00
2022-10-04T20:59:02.522Z,21.00
2022-10-04T21:01:38.174Z,21.00
2022-10-04T21:04:44.353Z,21.00
2022-10-04T21:07:16.734Z,21.00
2022-10-04T21:09:46.103Z,21.00
2022-10-04T21:12:32.512Z,21.00
2022-10-04T21:15:17.716Z,21.00
2022-10-04T21:18:06.055Z,21.00
2022-10-04T21:20:45.380Z,21.10
2022-10-04T21:23:29.844Z,21.10
2022-10-04T21:26:21.465Z,21.10
2022-10-04T21:28:52.412Z,21.10
2022-10-04T21:31:19.237Z,21.10
2022-10-04T21:33:48.533Z,21.10
2022-10-04T21:36:15.321Z,21.10
2022-10-04T21:38:42.234Z,21.10
2022-10-04T21:41:09.014Z,21.10
2022-10-04T21:43:35.723Z,21.10
2022-10-04T21:46:02.592Z,21.10
2022-10-04T21:48:29.426Z,21.10
2022-10-04T21:50:56.243Z,21.10
2022-10-04T21:53:23.231Z,21.20
2022-10-04T21:55:50.297Z,21.10
2022-10-04T21:58:17.075Z,21.10
2022-10-04T22:00:43.889Z,21.20
2022-10-04T22:03:10.811Z,21.20
2022-10-04T22:05:37.522Z,21.20
2022-10-04T22:08:04.382Z,21.20
2022-10-04T22:10:31.266Z,21.20
2022-10-04T22:12:58.070Z,21.20
2022-10-04T22:15:26.502Z,21.20
2022-10-04T22:17:53.535Z,21.20
2022-10-04T22:20:20.436Z,21.20
2022-10-04T22:22:49.727Z,21.20
2022-10-04T22:25:19.117Z,21.20
2022-10-04T22:27:46.749Z,21.20
2022-10-04T22:30:36.282Z,21.20
2022-10-04T22:33:03.163Z,21.20
2022-10-04T22:35:31.831Z,21.20
2022-10-04T22:38:00.037Z,21.20
2022-10-04T22:40:28.331Z,21.20
2022-10-04T22:42:57.672Z,21.20
2022-10-04T22:45:29.052Z,21.20
2022-10-04T22:48:06.750Z,21.30
2022-10-04T22:50:38.118Z,21.30
2022-10-04T22:53:19.503Z,21.20
2022-10-04T22:55:48.817Z,21.30
2022-10-04T22:58:17.321Z,21.30
2022-10-04T23:00:45.387Z,21.30
2022-10-04T23:03:26.570Z,21.30
2022-10-04T23:05:55.781Z,21.30
2022-10-04T23:08:22.526Z,21.30
2022-10-04T23:11:00.181Z,21.30
2022-10-04T23:13:27.722Z,21.30
2022-10-04T23:15:59.356Z,21.30
2022-10-04T23:18:26.800Z,21.30
2022-10-04T23:20:58.056Z,21.30
2022-10-04T23:23:28.116Z,21.30
2022-10-04T23:25:55.049Z,21.30
2022-10-04T23:28:22.028Z,21.30
2022-10-04T23:31:00.929Z,21.30
2022-10-04T23:33:28.175Z,21.40
2022-10-04T23:35:55.309Z,21.30
2022-10-04T23:38:24.354Z,21.40
2022-10-04T23:40:51.448Z,21.40
2022-10-04T23:43:26.920Z,21.40
2022-10-04T23:45:54.973Z,21.40
2022-10-04T23:48:22.996Z,21.40
2022-10-04T23:50:50.686Z,21.40
2022-10-04T23:53:27.199Z,21.40
2022-10-04T23:56:09.040Z,21.40
2022-10-04T23:58:41.354Z,21.40
